sensor_id;sensor_type;location;lat;lon;timestamp;temperature;humidity
2913;DHT22;1466;48.778;9.166;2023-02-18T00:00:07;14.10;99.90
2913;DHT22;1466;48.778;9.166;2023-02-18T00:02:33;14.10;99.90
2913;DHT22;1466;48.778;9.166;2023-02-18T00:04:59;14.10;99.90
2913;DHT22;1466;48.778;9.166;2023-02-18T00:07:24;14.10;99.90
2913;DHT22;1466;48.778;9.166;2023-02-18T00:09:50;14.10;99.90
2913;DHT22;1466;48.778;9.166;2023-02-18T00:12:16;14.10;99.90
2913;DHT22;1466;48.778;9.166;2023-02-18T00:14:41;14.10;99.90
2913;DHT22;1466;48.778;9.166;2023-02-18T00:17:07;14.10;99.90
2913;DHT22;1466;48.778;9.166;2023-02-18T00:19:32;14.10;99.90
2913;DHT22;1466;48.778;9.166;2023-02-18T00:21:58;14.10;99.90
2913;DHT22;1466;48.778;9.166;2023-02-18T00:24:23;14.10;99.90
2913;DHT22;1466;48.778;9.166;2023-02-18T00:26:50;14.00;99.90
2913;DHT22;1466;48.778;9.166;2023-02-18T00:29:17;14.10;99.90
2913;DHT22;1466;48.778;9.166;2023-02-18T00:31:42;14.00;99.90
2913;DHT22;1466;48.778;9.166;2023-02-18T00:34:09;14.00;99.90
2913;DHT22;1466;48.778;9.166;2023-02-18T00:36:35;14.10;99.90
2913;DHT22;1466;48.778;9.166;2023-02-18T00:39:05;14.10;99.90
2913;DHT22;1466;48.778;9.166;2023-02-18T00:41:32;14.10;99.90
2913;DHT22;1466;48.778;9.166;2023-02-18T00:43:58;14.00;99.90
2913;DHT22;1466;48.778;9.166;2023-02-18T00:46:24;14.10;99.90
2913;DHT22;1466;48.778;9.166;2023-02-18T00:48:50;14.00;99.90
2913;DHT22;1466;48.778;9.166;2023-02-18T00:51:16;14.00;99.90
2913;DHT22;1466;48.778;9.166;2023-02-18T00:53:42;14.00;99.90
2913;DHT22;1466;48.778;9.166;2023-02-18T00:56:07;14.00;99.90
2913;DHT22;1466;48.778;9.166;2023-02-18T00:58:34;14.00;99.90
2913;DHT22;1466;48.778;9.166;2023-02-18T01:01:01;14.00;99.90
2913;DHT22;1466;48.778;9.166;2023-02-18T01:03:27;14.00;99.90
2913;DHT22;1466;48.778;9.166;2023-02-18T01:05:53;14.00;99.90
2913;DHT22;1466;48.778;9.166;2023-02-18T01:08:19;14.00;99.90
2913;DHT22;1466;48.778;9.166;2023-02-18T01:10:47;14.00;99.90
2913;DHT22;1466;48.778;9.166;2023-02-18T01:13:14;14.00;99.90
2913;DHT22;1466;48.778;9.166;2023-02-18T01:15:40;14.00;99.90
2913;DHT22;1466;48.778;9.166;2023-02-18T01:18:07;14.00;99.90
2913;DHT22;1466;48.778;9.166;2023-02-18T01:20:37;14.00;99.90
2913;DHT22;1466;48.778;9.166;2023-02-18T01:23:04;14.00;99.90
2913;DHT22;1466;48.778;9.166;2023-02-18T01:25:30;14.00;99.90
2913;DHT22;1466;48.778;9.166;2023-02-18T01:27:56;14.00;99.90
2913;DHT22;1466;48.778;9.166;2023-02-18T01:30:22;14.00;99.90
2913;DHT22;1466;48.778;9.166;2023-02-18T01:32:48;13.90;99.90
2913;DHT22;1466;48.778;9.166;2023-02-18T01:35:15;13.90;99.90
2913;DHT22;1466;48.778;9.166;2023-02-18T01:37:41;13.90;99.90
2913;DHT22;1466;48.778;9.166;2023-02-18T01:40:09;13.80;99.90
2913;DHT22;1466;48.778;9.166;2023-02-18T01:42:35;13.90;99.90
2913;DHT22;1466;48.778;9.166;2023-02-18T01:47:58;13.80;99.90
2913;DHT22;1466;48.778;9.166;2023-02-18T01:50:24;13.80;99.90
2913;DHT22;1466;48.778;9.166;2023-02-18T01:52:50;13.80;99.90
2913;DHT22;1466;48.778;9.166;2023-02-18T01:55:15;13.70;99.90
2913;DHT22;1466;48.778;9.166;2023-02-18T01:57:41;13.70;99.90
2913;DHT22;1466;48.778;9.166;2023-02-18T02:00:10;13.70;99.90
2913;DHT22;1466;48.778;9.166;2023-02-18T02:02:39;13.70;99.90
2913;DHT22;1466;48.778;9.166;2023-02-18T02:05:06;13.70;99.90
2913;DHT22;1466;48.778;9.166;2023-02-18T02:07:32;13.80;99.90
2913;DHT22;1466;48.778;9.166;2023-02-18T02:09:58;13.70;99.90
2913;DHT22;1466;48.778;9.166;2023-02-18T02:15:12;13.70;99.90
2913;DHT22;1466;48.778;9.166;2023-02-18T02:29:25;13.70;99.90
2913;DHT22;1466;48.778;9.166;2023-02-18T02:32:09;13.80;99.90
2913;DHT22;1466;48.778;9.166;2023-02-18T02:35:10;13.80;99.90
2913;DHT22;1466;48.778;9.166;2023-02-18T02:38:21;13.80;99.90
2913;DHT22;1466;48.778;9.166;2023-02-18T02:40:21;13.80;99.90
2913;DHT22;1466;48.778;9.166;2023-02-18T02:43:12;13.70;99.90
2913;DHT22;1466;48.778;9.166;2023-02-18T02:45:54;13.80;99.90
2913;DHT22;1466;48.778;9.166;2023-02-18T02:48:56;13.80;99.90
2913;DHT22;1466;48.778;9.166;2023-02-18T02:51:52;13.80;99.90
2913;DHT22;1466;48.778;9.166;2023-02-18T02:54:23;13.80;99.90
2913;DHT22;1466;48.778;9.166;2023-02-18T02:56:48;13.80;99.90
2913;DHT22;1466;48.778;9.166;2023-02-18T02:59:18;13.80;99.90
2913;DHT22;1466;48.778;9.166;2023-02-18T03:18:00;13.70;99.90
2913;DHT22;1466;48.778;9.166;2023-02-18T03:20:31;13.70;99.90
2913;DHT22;1466;48.778;9.166;2023-02-18T03:23:01;13.70;99.90
2913;DHT22;1466;48.778;9.166;2023-02-18T03:25:30;13.80;99.90
2913;DHT22;1466;48.778;9.166;2023-02-18T03:27:59;13.80;99.90
2913;DHT22;1466;48.778;9.166;2023-02-18T03:30:39;13.70;99.90
2913;DHT22;1466;48.778;9.166;2023-02-18T03:33:09;13.70;99.90
2913;DHT22;1466;48.778;9.166;2023-02-18T03:35:36;13.70;99.90
2913;DHT22;1466;48.778;9.166;2023-02-18T03:38:28;13.60;99.90
2913;DHT22;1466;48.778;9.166;2023-02-18T03:40:55;13.50;99.90
2913;DHT22;1466;48.778;9.166;2023-02-18T03:43:20;13.50;99.90
2913;DHT22;1466;48.778;9.166;2023-02-18T03:45:46;13.50;99.90
2913;DHT22;1466;48.778;9.166;2023-02-18T03:48:12;13.40;99.90
2913;DHT22;1466;48.778;9.166;2023-02-18T03:50:38;13.50;99.90
2913;DHT22;1466;48.778;9.166;2023-02-18T03:53:03;13.40;99.90
2913;DHT22;1466;48.778;9.166;2023-02-18T03:55:29;13.40;99.90
2913;DHT22;1466;48.778;9.166;2023-02-18T03:57:55;13.40;99.90
2913;DHT22;1466;48.778;9.166;2023-02-18T04:00:20;13.30;99.90
2913;DHT22;1466;48.778;9.166;2023-02-18T04:02:46;13.30;99.90
2913;DHT22;1466;48.778;9.166;2023-02-18T04:05:12;13.30;99.90
2913;DHT22;1466;48.778;9.166;2023-02-18T04:07:37;13.30;99.90
2913;DHT22;1466;48.778;9.166;2023-02-18T04:10:04;13.30;99.90
2913;DHT22;1466;48.778;9.166;2023-02-18T04:12:30;13.30;99.90
2913;DHT22;1466;48.778;9.166;2023-02-18T04:14:56;13.30;99.90
2913;DHT22;1466;48.778;9.166;2023-02-18T04:17:21;13.30;99.90
2913;DHT22;1466;48.778;9.166;2023-02-18T04:19:47;13.40;99.90
2913;DHT22;1466;48.778;9.166;2023-02-18T04:22:12;13.40;99.90
2913;DHT22;1466;48.778;9.166;2023-02-18T04:24:38;13.40;99.90
2913;DHT22;1466;48.778;9.166;2023-02-18T04:27:04;13.40;99.90
2913;DHT22;1466;48.778;9.166;2023-02-18T04:29:29;13.40;99.90
2913;DHT22;1466;48.778;9.166;2023-02-18T04:31:55;13.40;99.90
2913;DHT22;1466;48.778;9.166;2023-02-18T04:34:20;13.30;99.90
2913;DHT22;1466;48.778;9.166;2023-02-18T04:36:46;13.30;99.90
2913;DHT22;1466;48.778;9.166;2023-02-18T04:39:12;13.40;99.90
2913;DHT22;1466;48.778;9.166;2023-02-18T04:41:37;13.30;99.90
2913;DHT22;1466;48.778;9.166;2023-02-18T04:44:03;13.30;99.90
2913;DHT22;1466;48.778;9.166;2023-02-18T04:46:28;13.20;99.90
2913;DHT22;1466;48.778;9.166;2023-02-18T04:48:54;13.20;99.90
2913;DHT22;1466;48.778;9.166;2023-02-18T04:51:20;13.30;99.90
2913;DHT22;1466;48.778;9.166;2023-02-18T04:53:45;13.30;99.90
2913;DHT22;1466;48.778;9.166;2023-02-18T04:56:11;13.20;99.90
2913;DHT22;1466;48.778;9.166;2023-02-18T04:58:36;13.30;99.90
2913;DHT22;1466;48.778;9.166;2023-02-18T05:01:03;13.30;99.90
2913;DHT22;1466;48.778;9.166;2023-02-18T05:03:30;13.20;99.90
2913;DHT22;1466;48.778;9.166;2023-02-18T05:05:56;13.20;99.90
2913;DHT22;1466;48.778;9.166;2023-02-18T05:08:22;13.20;99.90
2913;DHT22;1466;48.778;9.166;2023-02-18T05:10:47;13.20;99.90
2913;DHT22;1466;48.778;9.166;2023-02-18T05:13:13;13.20;99.90
2913;DHT22;1466;48.778;9.166;2023-02-18T05:15:39;13.20;99.90
2913;DHT22;1466;48.778;9.166;2023-02-18T05:18:04;13.20;99.90
2913;DHT22;1466;48.778;9.166;2023-02-18T05:20:30;13.20;99.90
2913;DHT22;1466;48.778;9.166;2023-02-18T05:22:56;13.20;99.90
2913;DHT22;1466;48.778;9.166;2023-02-18T05:25:21;13.20;99.90
2913;DHT22;1466;48.778;9.166;2023-02-18T05:27:47;13.20;99.90
2913;DHT22;1466;48.778;9.166;2023-02-18T05:30:13;13.20;99.90
2913;DHT22;1466;48.778;9.166;2023-02-18T05:32:38;13.20;99.90
2913;DHT22;1466;48.778;9.166;2023-02-18T05:35:04;13.20;99.90
2913;DHT22;1466;48.778;9.166;2023-02-18T05:37:30;13.20;99.90
2913;DHT22;1466;48.778;9.166;2023-02-18T05:39:56;13.20;99.90
2913;DHT22;1466;48.778;9.166;2023-02-18T05:42:21;13.10;99.90
2913;DHT22;1466;48.778;9.166;2023-02-18T05:44:47;13.10;99.90
2913;DHT22;1466;48.778;9.166;2023-02-18T05:47:13;13.10;99.90
2913;DHT22;1466;48.778;9.166;2023-02-18T05:49:40;13.00;99.90
2913;DHT22;1466;48.778;9.166;2023-02-18T05:52:06;13.00;99.90
2913;DHT22;1466;48.778;9.166;2023-02-18T05:54:33;13.00;99.90
2913;DHT22;1466;48.778;9.166;2023-02-18T05:56:58;13.00;99.90
2913;DHT22;1466;48.778;9.166;2023-02-18T05:59:24;13.00;99.90
2913;DHT22;1466;48.778;9.166;2023-02-18T06:01:50;13.00;99.90
2913;DHT22;1466;48.778;9.166;2023-02-18T06:04:16;13.00;99.90
2913;DHT22;1466;48.778;9.166;2023-02-18T06:06:42;13.00;99.90
2913;DHT22;1466;48.778;9.166;2023-02-18T06:09:08;13.00;99.90
2913;DHT22;1466;48.778;9.166;2023-02-18T06:11:34;13.00;99.90
2913;DHT22;1466;48.778;9.166;2023-02-18T06:14:00;13.00;99.90
2913;DHT22;1466;48.778;9.166;2023-02-18T06:16:26;13.00;99.90
2913;DHT22;1466;48.778;9.166;2023-02-18T06:18:52;13.00;99.90
2913;DHT22;1466;48.778;9.166;2023-02-18T06:21:17;13.00;99.90
2913;DHT22;1466;48.778;9.166;2023-02-18T06:23:43;13.00;99.90
2913;DHT22;1466;48.778;9.166;2023-02-18T06:26:09;13.00;99.90
2913;DHT22;1466;48.778;9.166;2023-02-18T06:28:34;13.00;99.90
2913;DHT22;1466;48.778;9.166;2023-02-18T06:31:00;13.00;99.90
2913;DHT22;1466;48.778;9.166;2023-02-18T06:33:25;13.10;99.90
2913;DHT22;1466;48.778;9.166;2023-02-18T06:36:03;13.10;99.90
2913;DHT22;1466;48.778;9.166;2023-02-18T06:38:32;13.10;99.90
2913;DHT22;1466;48.778;9.166;2023-02-18T06:40:58;13.10;99.90
2913;DHT22;1466;48.778;9.166;2023-02-18T06:43:23;13.10;99.90
2913;DHT22;1466;48.778;9.166;2023-02-18T06:45:49;13.10;99.90
2913;DHT22;1466;48.778;9.166;2023-02-18T06:48:15;13.20;99.90
2913;DHT22;1466;48.778;9.166;2023-02-18T06:50:41;13.20;99.90
2913;DHT22;1466;48.778;9.166;2023-02-18T06:53:07;13.20;99.90
2913;DHT22;1466;48.778;9.166;2023-02-18T06:55:32;13.30;99.90
2913;DHT22;1466;48.778;9.166;2023-02-18T06:57:58;13.30;99.90
2913;DHT22;1466;48.778;9.166;2023-02-18T07:00:23;13.30;99.90
2913;DHT22;1466;48.778;9.166;2023-02-18T07:02:49;13.30;99.90
2913;DHT22;1466;48.778;9.166;2023-02-18T07:05:15;13.30;99.90
2913;DHT22;1466;48.778;9.166;2023-02-18T07:07:41;13.40;99.90
2913;DHT22;1466;48.778;9.166;2023-02-18T07:10:07;13.40;99.90
2913;DHT22;1466;48.778;9.166;2023-02-18T07:12:33;13.40;99.90
2913;DHT22;1466;48.778;9.166;2023-02-18T07:14:58;13.40;99.90
2913;DHT22;1466;48.778;9.166;2023-02-18T07:17:24;13.40;99.90
2913;DHT22;1466;48.778;9.166;2023-02-18T07:19:49;13.40;99.90
2913;DHT22;1466;48.778;9.166;2023-02-18T07:22:15;13.40;99.90
2913;DHT22;1466;48.778;9.166;2023-02-18T07:24:44;13.40;99.90
2913;DHT22;1466;48.778;9.166;2023-02-18T07:27:10;13.40;99.90
2913;DHT22;1466;48.778;9.166;2023-02-18T07:29:36;13.50;99.90
2913;DHT22;1466;48.778;9.166;2023-02-18T07:32:01;13.50;99.90
2913;DHT22;1466;48.778;9.166;2023-02-18T07:34:27;13.50;99.90
2913;DHT22;1466;48.778;9.166;2023-02-18T07:36:52;13.60;99.90
2913;DHT22;1466;48.778;9.166;2023-02-18T07:39:18;13.60;99.90
2913;DHT22;1466;48.778;9.166;2023-02-18T07:41:46;13.60;99.90
2913;DHT22;1466;48.778;9.166;2023-02-18T07:44:12;13.60;99.90
2913;DHT22;1466;48.778;9.166;2023-02-18T07:46:39;13.70;99.90
2913;DHT22;1466;48.778;9.166;2023-02-18T07:49:05;13.70;99.90
2913;DHT22;1466;48.778;9.166;2023-02-18T07:51:31;13.70;99.90
2913;DHT22;1466;48.778;9.166;2023-02-18T07:53:56;13.80;99.90
2913;DHT22;1466;48.778;9.166;2023-02-18T07:56:22;13.80;99.90
2913;DHT22;1466;48.778;9.166;2023-02-18T07:58:47;13.90;99.90
2913;DHT22;1466;48.778;9.166;2023-02-18T08:01:14;13.90;99.90
2913;DHT22;1466;48.778;9.166;2023-02-18T08:03:40;13.90;99.90
2913;DHT22;1466;48.778;9.166;2023-02-18T08:06:06;13.90;99.90
2913;DHT22;1466;48.778;9.166;2023-02-18T08:08:33;14.00;99.90
2913;DHT22;1466;48.778;9.166;2023-02-18T08:11:01;14.00;99.90
2913;DHT22;1466;48.778;9.166;2023-02-18T08:13:32;14.00;99.90
2913;DHT22;1466;48.778;9.166;2023-02-18T08:15:58;14.00;99.90
2913;DHT22;1466;48.778;9.166;2023-02-18T08:18:24;14.00;99.90
2913;DHT22;1466;48.778;9.166;2023-02-18T08:20:51;14.00;99.90
2913;DHT22;1466;48.778;9.166;2023-02-18T08:23:19;14.00;99.90
2913;DHT22;1466;48.778;9.166;2023-02-18T08:25:47;14.10;99.90
2913;DHT22;1466;48.778;9.166;2023-02-18T08:28:13;14.10;99.90
2913;DHT22;1466;48.778;9.166;2023-02-18T08:30:42;14.20;99.90
2913;DHT22;1466;48.778;9.166;2023-02-18T08:33:08;14.30;99.90
2913;DHT22;1466;48.778;9.166;2023-02-18T08:35:34;14.30;99.90
2913;DHT22;1466;48.778;9.166;2023-02-18T08:37:59;14.40;99.90
2913;DHT22;1466;48.778;9.166;2023-02-18T08:40:25;14.40;99.90
2913;DHT22;1466;48.778;9.166;2023-02-18T08:42:50;14.50;99.90
2913;DHT22;1466;48.778;9.166;2023-02-18T08:45:16;14.50;99.90
2913;DHT22;1466;48.778;9.166;2023-02-18T08:47:41;14.50;99.90
2913;DHT22;1466;48.778;9.166;2023-02-18T08:50:07;14.60;99.90
2913;DHT22;1466;48.778;9.166;2023-02-18T08:52:33;14.60;99.90
2913;DHT22;1466;48.778;9.166;2023-02-18T08:54:59;14.60;99.90
2913;DHT22;1466;48.778;9.166;2023-02-18T08:57:26;14.70;99.90
2913;DHT22;1466;48.778;9.166;2023-02-18T08:59:52;14.80;99.90
2913;DHT22;1466;48.778;9.166;2023-02-18T09:02:17;14.80;99.90
2913;DHT22;1466;48.778;9.166;2023-02-18T09:04:43;14.80;99.90
2913;DHT22;1466;48.778;9.166;2023-02-18T09:07:09;14.80;99.90
2913;DHT22;1466;48.778;9.166;2023-02-18T09:09:34;14.90;99.90
2913;DHT22;1466;48.778;9.166;2023-02-18T09:12:00;15.00;99.90
2913;DHT22;1466;48.778;9.166;2023-02-18T09:14:26;15.00;99.90
2913;DHT22;1466;48.778;9.166;2023-02-18T09:16:52;15.10;99.90
2913;DHT22;1466;48.778;9.166;2023-02-18T09:19:17;15.10;99.90
2913;DHT22;1466;48.778;9.166;2023-02-18T09:21:43;15.10;99.90
2913;DHT22;1466;48.778;9.166;2023-02-18T09:24:09;15.20;99.90
2913;DHT22;1466;48.778;9.166;2023-02-18T09:26:35;15.20;99.90
2913;DHT22;1466;48.778;9.166;2023-02-18T09:29:01;15.30;99.90
2913;DHT22;1466;48.778;9.166;2023-02-18T09:31:27;15.40;99.90
2913;DHT22;1466;48.778;9.166;2023-02-18T09:34:01;15.40;99.90
2913;DHT22;1466;48.778;9.166;2023-02-18T09:36:27;15.40;99.90
2913;DHT22;1466;48.778;9.166;2023-02-18T09:38:53;15.50;99.90
2913;DHT22;1466;48.778;9.166;2023-02-18T09:41:30;15.40;99.90
2913;DHT22;1466;48.778;9.166;2023-02-18T09:44:05;15.40;99.90
2913;DHT22;1466;48.778;9.166;2023-02-18T09:46:38;15.30;99.90
2913;DHT22;1466;48.778;9.166;2023-02-18T09:49:07;15.40;99.90
2913;DHT22;1466;48.778;9.166;2023-02-18T09:51:38;15.40;99.80
2913;DHT22;1466;48.778;9.166;2023-02-18T09:54:04;15.40;99.80
2913;DHT22;1466;48.778;9.166;2023-02-18T09:56:32;15.40;99.80
2913;DHT22;1466;48.778;9.166;2023-02-18T09:59:03;15.40;99.80
2913;DHT22;1466;48.778;9.166;2023-02-18T10:01:35;15.40;99.80
2913;DHT22;1466;48.778;9.166;2023-02-18T10:04:14;15.40;99.80
2913;DHT22;1466;48.778;9.166;2023-02-18T10:06:42;15.50;99.70
2913;DHT22;1466;48.778;9.166;2023-02-18T10:09:18;15.50;99.70
2913;DHT22;1466;48.778;9.166;2023-02-18T10:11:48;15.50;99.60
2913;DHT22;1466;48.778;9.166;2023-02-18T10:14:15;15.50;99.60
2913;DHT22;1466;48.778;9.166;2023-02-18T10:16:42;15.50;99.70
2913;DHT22;1466;48.778;9.166;2023-02-18T10:19:33;15.50;99.70
2913;DHT22;1466;48.778;9.166;2023-02-18T10:22:03;15.50;99.70
2913;DHT22;1466;48.778;9.166;2023-02-18T10:27:09;15.60;99.60
2913;DHT22;1466;48.778;9.166;2023-02-18T10:29:40;15.60;99.50
2913;DHT22;1466;48.778;9.166;2023-02-18T10:32:32;15.60;99.40
2913;DHT22;1466;48.778;9.166;2023-02-18T10:37:56;15.70;99.20
2913;DHT22;1466;48.778;9.166;2023-02-18T10:45:32;15.80;99.20
2913;DHT22;1466;48.778;9.166;2023-02-18T10:50:48;15.90;98.90
2913;DHT22;1466;48.778;9.166;2023-02-18T10:55:59;15.90;98.60
2913;DHT22;1466;48.778;9.166;2023-02-18T10:58:36;16.00;98.60
2913;DHT22;1466;48.778;9.166;2023-02-18T11:01:06;16.00;98.50
2913;DHT22;1466;48.778;9.166;2023-02-18T11:08:46;16.20;98.20
2913;DHT22;1466;48.778;9.166;2023-02-18T11:11:17;16.20;98.00
2913;DHT22;1466;48.778;9.166;2023-02-18T11:13:52;16.20;98.00
2913;DHT22;1466;48.778;9.166;2023-02-18T11:16:21;16.30;97.80
2913;DHT22;1466;48.778;9.166;2023-02-18T11:18:47;16.20;97.60
2913;DHT22;1466;48.778;9.166;2023-02-18T11:23:50;16.20;97.60
2913;DHT22;1466;48.778;9.166;2023-02-18T11:26:39;16.20;97.50
2913;DHT22;1466;48.778;9.166;2023-02-18T11:29:20;16.20;97.30
2913;DHT22;1466;48.778;9.166;2023-02-18T11:31:49;16.20;97.20
2913;DHT22;1466;48.778;9.166;2023-02-18T11:34:20;16.10;97.00
2913;DHT22;1466;48.778;9.166;2023-02-18T11:36:47;16.10;96.90
2913;DHT22;1466;48.778;9.166;2023-02-18T11:39:20;16.10;96.80
2913;DHT22;1466;48.778;9.166;2023-02-18T11:41:55;16.20;96.80
2913;DHT22;1466;48.778;9.166;2023-02-18T11:49:28;16.30;96.20
2913;DHT22;1466;48.778;9.166;2023-02-18T11:57:24;16.40;96.20
2913;DHT22;1466;48.778;9.166;2023-02-18T11:59:51;16.50;96.20
2913;DHT22;1466;48.778;9.166;2023-02-18T12:02:36;16.60;96.10
2913;DHT22;1466;48.778;9.166;2023-02-18T12:05:10;16.60;95.90
2913;DHT22;1466;48.778;9.166;2023-02-18T12:11:05;16.70;95.80
2913;DHT22;1466;48.778;9.166;2023-02-18T12:14:07;16.70;95.70
2913;DHT22;1466;48.778;9.166;2023-02-18T12:16:45;16.70;95.70
2913;DHT22;1466;48.778;9.166;2023-02-18T12:22:30;16.80;95.20
2913;DHT22;1466;48.778;9.166;2023-02-18T12:25:24;16.70;95.10
2913;DHT22;1466;48.778;9.166;2023-02-18T12:28:45;16.70;95.10
2913;DHT22;1466;48.778;9.166;2023-02-18T12:36:50;16.70;94.80
2913;DHT22;1466;48.778;9.166;2023-02-18T12:44:38;16.60;94.60
2913;DHT22;1466;48.778;9.166;2023-02-18T12:52:40;16.50;94.40
2913;DHT22;1466;48.778;9.166;2023-02-18T13:01:12;16.60;94.20
2913;DHT22;1466;48.778;9.166;2023-02-18T13:06:19;16.40;94.10
2913;DHT22;1466;48.778;9.166;2023-02-18T13:14:13;16.30;94.30
2913;DHT22;1466;48.778;9.166;2023-02-18T13:16:44;16.30;94.30
2913;DHT22;1466;48.778;9.166;2023-02-18T13:19:21;16.30;94.40
2913;DHT22;1466;48.778;9.166;2023-02-18T13:21:51;16.20;94.40
2913;DHT22;1466;48.778;9.166;2023-02-18T13:24:39;16.20;94.40
2913;DHT22;1466;48.778;9.166;2023-02-18T13:32:39;16.00;94.80
2913;DHT22;1466;48.778;9.166;2023-02-18T13:40:25;16.00;94.30
2913;DHT22;1466;48.778;9.166;2023-02-18T13:42:54;15.90;94.40
2913;DHT22;1466;48.778;9.166;2023-02-18T13:45:40;15.90;94.30
2913;DHT22;1466;48.778;9.166;2023-02-18T13:48:25;15.90;94.30
2913;DHT22;1466;48.778;9.166;2023-02-18T13:50:53;16.00;94.20
2913;DHT22;1466;48.778;9.166;2023-02-18T13:53:21;15.90;94.10
2913;DHT22;1466;48.778;9.166;2023-02-18T13:55:52;16.00;94.30
2913;DHT22;1466;48.778;9.166;2023-02-18T13:58:41;16.00;94.20
2913;DHT22;1466;48.778;9.166;2023-02-18T14:04:00;16.00;93.90
2913;DHT22;1466;48.778;9.166;2023-02-18T14:06:29;16.00;93.90
2913;DHT22;1466;48.778;9.166;2023-02-18T14:11:45;16.00;93.70
2913;DHT22;1466;48.778;9.166;2023-02-18T14:19:42;16.20;94.10
2913;DHT22;1466;48.778;9.166;2023-02-18T14:22:33;16.20;94.20
2913;DHT22;1466;48.778;9.166;2023-02-18T14:27:51;16.20;94.30
2913;DHT22;1466;48.778;9.166;2023-02-18T14:32:47;16.10;94.40
2913;DHT22;1466;48.778;9.166;2023-02-18T14:38:31;16.10;94.30
2913;DHT22;1466;48.778;9.166;2023-02-18T14:45:59;16.00;94.40
2913;DHT22;1466;48.778;9.166;2023-02-18T14:50:58;16.10;94.50
2913;DHT22;1466;48.778;9.166;2023-02-18T14:53:26;16.10;94.50
2913;DHT22;1466;48.778;9.166;2023-02-18T14:56:03;16.10;94.50
2913;DHT22;1466;48.778;9.166;2023-02-18T14:58:37;16.20;94.50
2913;DHT22;1466;48.778;9.166;2023-02-18T15:01:26;16.20;94.80
2913;DHT22;1466;48.778;9.166;2023-02-18T15:03:53;16.20;94.50
2913;DHT22;1466;48.778;9.166;2023-02-18T15:08:50;16.20;94.60
2913;DHT22;1466;48.778;9.166;2023-02-18T15:11:16;16.20;94.60
2913;DHT22;1466;48.778;9.166;2023-02-18T15:13:44;16.10;94.70
2913;DHT22;1466;48.778;9.166;2023-02-18T15:16:34;16.10;94.70
2913;DHT22;1466;48.778;9.166;2023-02-18T15:19:22;16.20;94.80
2913;DHT22;1466;48.778;9.166;2023-02-18T15:21:49;16.10;94.70
2913;DHT22;1466;48.778;9.166;2023-02-18T15:24:35;16.00;94.70
2913;DHT22;1466;48.778;9.166;2023-02-18T15:27:18;16.00;94.90
2913;DHT22;1466;48.778;9.166;2023-02-18T15:29:48;15.90;94.90
2913;DHT22;1466;48.778;9.166;2023-02-18T15:34:43;15.80;95.20
2913;DHT22;1466;48.778;9.166;2023-02-18T15:37:12;15.90;95.30
2913;DHT22;1466;48.778;9.166;2023-02-18T15:39:39;15.90;95.30
2913;DHT22;1466;48.778;9.166;2023-02-18T15:45:21;15.90;95.40
2913;DHT22;1466;48.778;9.166;2023-02-18T15:47:50;15.80;95.60
2913;DHT22;1466;48.778;9.166;2023-02-18T15:50:19;15.80;95.70
2913;DHT22;1466;48.778;9.166;2023-02-18T15:52:49;15.80;95.70
2913;DHT22;1466;48.778;9.166;2023-02-18T15:55:30;15.80;95.70
2913;DHT22;1466;48.778;9.166;2023-02-18T15:58:00;15.80;95.70
2913;DHT22;1466;48.778;9.166;2023-02-18T16:00:29;15.60;95.70
2913;DHT22;1466;48.778;9.166;2023-02-18T16:05:28;15.60;96.00
2913;DHT22;1466;48.778;9.166;2023-02-18T16:08:00;15.50;96.20
2913;DHT22;1466;48.778;9.166;2023-02-18T16:13:01;15.50;96.20
2913;DHT22;1466;48.778;9.166;2023-02-18T16:15:47;15.40;96.30
2913;DHT22;1466;48.778;9.166;2023-02-18T16:18:29;15.40;96.50
2913;DHT22;1466;48.778;9.166;2023-02-18T16:23:44;15.40;96.70
2913;DHT22;1466;48.778;9.166;2023-02-18T16:26:22;15.40;96.70
2913;DHT22;1466;48.778;9.166;2023-02-18T16:28:51;15.40;96.70
2913;DHT22;1466;48.778;9.166;2023-02-18T16:31:17;15.40;96.70
2913;DHT22;1466;48.778;9.166;2023-02-18T16:33:48;15.30;96.80
2913;DHT22;1466;48.778;9.166;2023-02-18T16:36:17;15.30;96.90
2913;DHT22;1466;48.778;9.166;2023-02-18T16:38:44;15.20;97.00
2913;DHT22;1466;48.778;9.166;2023-02-18T16:41:12;15.10;97.10
2913;DHT22;1466;48.778;9.166;2023-02-18T16:43:38;15.10;97.10
2913;DHT22;1466;48.778;9.166;2023-02-18T16:46:18;15.10;97.10
2913;DHT22;1466;48.778;9.166;2023-02-18T16:48:48;15.10;97.30
2913;DHT22;1466;48.778;9.166;2023-02-18T16:51:17;15.00;97.20
2913;DHT22;1466;48.778;9.166;2023-02-18T16:53:45;15.00;97.30
2913;DHT22;1466;48.778;9.166;2023-02-18T16:56:25;15.10;97.30
2913;DHT22;1466;48.778;9.166;2023-02-18T16:58:51;15.00;97.30
2913;DHT22;1466;48.778;9.166;2023-02-18T17:01:29;15.00;97.40
2913;DHT22;1466;48.778;9.166;2023-02-18T17:04:00;15.00;97.30
2913;DHT22;1466;48.778;9.166;2023-02-18T17:06:26;15.00;97.40
2913;DHT22;1466;48.778;9.166;2023-02-18T17:08:52;15.10;97.40
2913;DHT22;1466;48.778;9.166;2023-02-18T17:11:30;15.00;97.40
2913;DHT22;1466;48.778;9.166;2023-02-18T17:13:56;15.00;97.40
2913;DHT22;1466;48.778;9.166;2023-02-18T17:16:27;15.00;97.40
2913;DHT22;1466;48.778;9.166;2023-02-18T17:18:53;15.10;97.40
2913;DHT22;1466;48.778;9.166;2023-02-18T17:21:20;15.00;97.50
2913;DHT22;1466;48.778;9.166;2023-02-18T17:23:46;15.10;97.50
2913;DHT22;1466;48.778;9.166;2023-02-18T17:28:43;15.00;97.70
2913;DHT22;1466;48.778;9.166;2023-02-18T17:31:14;15.00;97.60
2913;DHT22;1466;48.778;9.166;2023-02-18T17:33:42;15.10;97.70
2913;DHT22;1466;48.778;9.166;2023-02-18T17:36:09;15.00;97.70
2913;DHT22;1466;48.778;9.166;2023-02-18T17:38:35;15.10;97.80
2913;DHT22;1466;48.778;9.166;2023-02-18T17:41:07;15.00;97.80
2913;DHT22;1466;48.778;9.166;2023-02-18T17:43:33;15.00;98.00
2913;DHT22;1466;48.778;9.166;2023-02-18T17:45:59;14.90;98.10
2913;DHT22;1466;48.778;9.166;2023-02-18T17:48:26;14.90;98.20
2913;DHT22;1466;48.778;9.166;2023-02-18T17:50:52;14.90;98.30
2913;DHT22;1466;48.778;9.166;2023-02-18T17:53:18;14.90;98.40
2913;DHT22;1466;48.778;9.166;2023-02-18T17:55:45;14.80;98.40
2913;DHT22;1466;48.778;9.166;2023-02-18T17:58:12;14.80;98.60
2913;DHT22;1466;48.778;9.166;2023-02-18T18:00:44;14.80;98.80
2913;DHT22;1466;48.778;9.166;2023-02-18T18:03:13;14.70;98.80
2913;DHT22;1466;48.778;9.166;2023-02-18T18:05:40;14.80;99.00
2913;DHT22;1466;48.778;9.166;2023-02-18T18:08:07;14.80;99.00
2913;DHT22;1466;48.778;9.166;2023-02-18T18:10:35;14.80;99.00
2913;DHT22;1466;48.778;9.166;2023-02-18T18:13:05;14.80;99.00
2913;DHT22;1466;48.778;9.166;2023-02-18T18:15:41;14.80;98.90
2913;DHT22;1466;48.778;9.166;2023-02-18T18:18:10;14.80;99.00
2913;DHT22;1466;48.778;9.166;2023-02-18T18:20:36;14.80;98.90
2913;DHT22;1466;48.778;9.166;2023-02-18T18:23:04;14.80;98.90
2913;DHT22;1466;48.778;9.166;2023-02-18T18:25:37;14.80;99.00
2913;DHT22;1466;48.778;9.166;2023-02-18T18:28:04;14.80;99.00
2913;DHT22;1466;48.778;9.166;2023-02-18T18:30:32;14.80;99.10
2913;DHT22;1466;48.778;9.166;2023-02-18T18:33:00;14.90;99.10
2913;DHT22;1466;48.778;9.166;2023-02-18T18:35:28;14.80;99.10
2913;DHT22;1466;48.778;9.166;2023-02-18T18:37:54;14.80;99.20
2913;DHT22;1466;48.778;9.166;2023-02-18T18:40:21;14.80;99.20
2913;DHT22;1466;48.778;9.166;2023-02-18T18:42:47;14.80;99.10
2913;DHT22;1466;48.778;9.166;2023-02-18T18:47:50;14.80;99.30
2913;DHT22;1466;48.778;9.166;2023-02-18T18:50:16;14.70;99.30
2913;DHT22;1466;48.778;9.166;2023-02-18T18:52:43;14.80;99.30
2913;DHT22;1466;48.778;9.166;2023-02-18T18:55:32;14.70;99.30
2913;DHT22;1466;48.778;9.166;2023-02-18T18:57:58;14.60;99.60